Crown Of Scandinavia — OXRA6 — position and weather

sailwx.info

Track history (hours):
 
Tides and Currents Weather Stations Pressure Air Temp Water Temp Dewpoint Dewpoint Depression Visibility Wind Speed Wind Dir Waves Ship Positions

Crown Of Scandinavia

Last reported at 2019-Nov-20 08:30 UTC. Time now 2019-Nov-20 09:19 UTC.
Position N 55°42' E 012°36'.

Length 171 m; draft 6.3 m.

Type: Ship. MMSI: 219592000.

Date/timePositionNaut miles runAvg speedWind from/ knotsBaromVisibWave heightAir tempDewpointWater temp
2019-Nov-20 08:30N 55°42' E 012°36'1313.4
2019-Nov-20 07:30N 55°56' E 012°39'1514.9
2019-Nov-20 06:30N 56°09' E 012°28'6616.2
2019-Nov-20 02:28N 57°12' E 011°53'4816.1
2019-Nov-19 23:30N 57°56' E 011°17'1616.0
2019-Nov-19 22:30N 58°11' E 011°07'2415.9
2019-Nov-19 21:00N 58°33' E 010°52'4016.0
2019-Nov-19 18:30N 59°13' E 010°38'815.9
2019-Nov-19 18:00N 59°20' E 010°35'2214.8
2019-Nov-19 16:30N 59°43' E 010°35'12 6.2
2019-Nov-19 14:30N 59°54' E 010°45'0 0.0
2019-Nov-19 13:30N 59°54' E 010°45'0 0.0
2019-Nov-19 11:00N 59°54' E 010°45'0 0.0
2019-Nov-19 09:00N 59°54' E 010°45'2110.4
2019-Nov-19 07:00N 59°34' E 010°38'3815.1
2019-Nov-19 04:30N 58°56' E 010°36'3915.5
2019-Nov-19 02:00N 58°18' E 010°47'4116.3
2019-Nov-18 23:30N 57°40' E 011°15'1616.2
2019-Nov-18 22:30N 57°25' E 011°28'816.7
2019-Nov-18 22:00N 57°18' E 011°34'816.5
2019-Nov-18 21:30N 57°10' E 011°39'8916.2
2019-Nov-18 16:00N 55°48' E 012°43'713.2
2019-Nov-18 15:30N 55°42' E 012°37'1 0.2
2019-Nov-18 13:00N 55°42' E 012°36'0 0.0
2019-Nov-18 12:30N 55°42' E 012°36'0 0.0
2019-Nov-18 11:00N 55°42' E 012°36'0 0.0
2019-Nov-18 09:30N 55°42' E 012°36'9512.6
2019-Nov-18 02:00N 57°14' E 011°52'1615.7
2019-Nov-18 01:00N 57°27' E 011°38'2416.0
2019-Nov-17 23:30N 57°50' E 011°22'816.1
2019-Nov-17 23:00N 57°57' E 011°17'1615.5
2019-Nov-17 22:00N 58°12' E 011°06'3215.9
2019-Nov-17 20:00N 58°42' E 010°46'4317.3
2019-Nov-17 17:30N 59°25' E 010°33'816.8
2019-Nov-17 17:00N 59°33' E 010°37'4 0.4
2019-Nov-17 07:30N 59°37' E 010°38'4314.5
2019-Nov-17 04:30N 58°54' E 010°35'714.3
2019-Nov-17 04:00N 58°46' E 010°35'814.9
2019-Nov-17 03:30N 58°39' E 010°36'3015.0
2019-Nov-17 01:30N 58°10' E 010°51'6415.9
2019-Nov-16 21:30N 57°11' E 011°38'6516.3
2019-Nov-16 17:30N 56°12' E 012°26'918.7
2019-Nov-16 17:00N 56°05' E 012°37'1616.3
2019-Nov-16 16:00N 55°49' E 012°44'714.4
2019-Nov-16 15:30N 55°43' E 012°37'11 1.4
2019-Nov-16 07:30N 55°54' E 012°39'1413.6
2019-Nov-16 06:30N 56°07' E 012°32'12715.8
2019-Nov-15 22:30N 58°06' E 011°10'4016.1
2019-Nov-15 20:00N 58°44' E 010°45'1716.8
2019-Nov-15 19:00N 59°00' E 010°41'1717.0
2019-Nov-15 18:00N 59°17' E 010°36'3714.9
2019-Nov-15 15:30N 59°54' E 010°44'0 0.1
2019-Nov-15 13:28N 59°54' E 010°45'0 0.0
2019-Nov-15 11:58N 59°54' E 010°45'0 0.0
2019-Nov-15 09:28N 59°54' E 010°45'0 0.1
2019-Nov-15 08:30N 59°54' E 010°45'2013.1
2019-Nov-15 07:00N 59°35' E 010°38'3815.4
2019-Nov-15 04:30N 58°56' E 010°37'1716.6
2019-Nov-15 03:30N 58°39' E 010°37'6017.1
2019-Nov-15 00:00N 57°43' E 011°12'2516.4
2019-Nov-14 22:30N 57°22' E 011°37'7715.7
2019-Nov-14 17:36N 56°10' E 012°29'216.2
2019-Nov-14 17:30N 56°09' E 012°30'27 3.9
2019-Nov-14 10:29N 55°42' E 012°36'27 6.8
2019-Nov-14 06:30N 56°09' E 012°29'7717.2
2019-Nov-14 02:00N 57°22' E 011°42'4116.3
2019-Nov-13 23:30N 57°52' E 010°51'3216.1
2019-Nov-13 21:30N 58°23' E 010°36'1716.9
2019-Nov-13 20:30N 58°40' E 010°34'3316.4
2019-Nov-13 18:30N 59°13' E 010°37'816.3
2019-Nov-13 18:00N 59°21' E 010°35'3014.9
2019-Nov-13 16:00N 59°51' E 010°35'6 3.9
2019-Nov-13 14:29N 59°54' E 010°45'0 0.0
2019-Nov-13 13:59N 59°54' E 010°45'0 0.0
2019-Nov-13 12:29N 59°54' E 010°45'0 0.0
2019-Nov-13 11:29N 59°54' E 010°45'0 0.0
2019-Nov-13 09:59N 59°54' E 010°45'0 0.0
2019-Nov-13 09:29N 59°54' E 010°45'0 0.2
2019-Nov-13 08:30N 59°54' E 010°45'3313.1
2019-Nov-13 06:01N 59°22' E 010°35'4916.4
2019-Nov-13 03:00N 58°32' E 010°38'816.5
2019-Nov-13 02:30N 58°24' E 010°41'816.4
2019-Nov-13 02:00N 58°17' E 010°47'3216.2
2019-Nov-13 00:00N 57°47' E 011°12'816.6
2019-Nov-12 23:30N 57°40' E 011°20'2516.9
2019-Nov-12 22:01N 57°16' E 011°36'6915.9
2019-Nov-12 17:41N 56°13' E 012°24'3114.3
2019-Nov-12 15:30N 55°42' E 012°37'1 1.1
2019-Nov-12 15:00N 55°42' E 012°36'0 0.0
2019-Nov-12 14:00N 55°42' E 012°36'0 0.0
2019-Nov-12 13:30N 55°42' E 012°36'0 0.0
2019-Nov-12 13:00N 55°42' E 012°36'0 0.0
2019-Nov-12 12:00N 55°42' E 012°36'0 0.0
2019-Nov-12 11:30N 55°42' E 012°36'0 0.0
2019-Nov-12 10:00N 55°42' E 012°36'0 0.0
2019-Nov-12 09:00N 55°42' E 012°36'11 7.7
2019-Nov-12 07:31N 55°53' E 012°40'2013.4
2019-Nov-12 06:00N 56°11' E 012°24'7215.9
2019-Nov-12 01:30N 57°20' E 011°46'2416.0
2019-Nov-12 00:00N 57°41' E 011°26'4116.3
2019-Nov-11 21:30N 58°20' E 011°01'815.9
2019-Nov-11 21:00N 58°27' E 010°55'4217.0
2019-Nov-11 18:30N 59°09' E 010°38'1918.8
2019-Nov-11 17:30N 59°27' E 010°33'918.2
2019-Nov-11 17:00N 59°36' E 010°38'714.6
2019-Nov-11 16:30N 59°43' E 010°34'12 8.0
2019-Nov-11 15:00N 59°54' E 010°45'0 0.0
2019-Nov-11 13:00N 59°54' E 010°45'0 0.0
2019-Nov-11 12:00N 59°54' E 010°45'0 0.0
2019-Nov-11 10:30N 59°54' E 010°45'0 0.0
2019-Nov-11 09:00N 59°54' E 010°45'3511.6
2019-Nov-11 06:01N 59°20' E 010°36'815.7
2019-Nov-11 05:31N 59°12' E 010°39'3115.6
2019-Nov-11 03:30N 58°41' E 010°37'1716.4
2019-Nov-11 02:30N 58°25' E 010°42'817.0
2019-Nov-11 02:01N 58°17' E 010°48'1616.5
2019-Nov-11 01:01N 58°02' E 010°58'816.3
2019-Nov-11 00:31N 57°54' E 011°04'1616.4
2019-Nov-10 23:31N 57°39' E 011°17'1616.4
2019-Nov-10 22:31N 57°24' E 011°29'2516.7
2019-Nov-10 21:00N 57°00' E 011°46'7915.9
2019-Nov-10 16:01N 55°48' E 012°43'7 1.0
2019-Nov-10 09:01N 55°42' E 012°36'  
Track history (hours):
 
Tides and Currents Weather Stations Pressure Air Temp Water Temp Dewpoint Dewpoint Depression Visibility Wind Speed Wind Dir Waves Ship Positions

Crown Of Scandinavia

Last reported at 2019-Nov-20 08:30 UTC. Time now 2019-Nov-20 09:19 UTC.
Position N 55°42' E 012°36'.

Length 171 m; draft 6.3 m.

Type: Ship. MMSI: 219592000.

Date/timePositionNaut miles runAvg speedWind from/ knotsBaromVisibWave heightAir tempDewpointWater temp
2019-Nov-20 08:30N 55°42' E 012°36'1313.4
2019-Nov-20 07:30N 55°56' E 012°39'1514.9
2019-Nov-20 06:30N 56°09' E 012°28'6616.2
2019-Nov-20 02:28N 57°12' E 011°53'4816.1
2019-Nov-19 23:30N 57°56' E 011°17'1616.0
2019-Nov-19 22:30N 58°11' E 011°07'2415.9
2019-Nov-19 21:00N 58°33' E 010°52'4016.0
2019-Nov-19 18:30N 59°13' E 010°38'815.9
2019-Nov-19 18:00N 59°20' E 010°35'2214.8
2019-Nov-19 16:30N 59°43' E 010°35'12 6.2
2019-Nov-19 14:30N 59°54' E 010°45'0 0.0
2019-Nov-19 13:30N 59°54' E 010°45'0 0.0
2019-Nov-19 11:00N 59°54' E 010°45'0 0.0
2019-Nov-19 09:00N 59°54' E 010°45'2110.4
2019-Nov-19 07:00N 59°34' E 010°38'3815.1
2019-Nov-19 04:30N 58°56' E 010°36'3915.5
2019-Nov-19 02:00N 58°18' E 010°47'4116.3
2019-Nov-18 23:30N 57°40' E 011°15'1616.2
2019-Nov-18 22:30N 57°25' E 011°28'816.7
2019-Nov-18 22:00N 57°18' E 011°34'816.5
2019-Nov-18 21:30N 57°10' E 011°39'8916.2
2019-Nov-18 16:00N 55°48' E 012°43'713.2
2019-Nov-18 15:30N 55°42' E 012°37'1 0.2
2019-Nov-18 13:00N 55°42' E 012°36'0 0.0
2019-Nov-18 12:30N 55°42' E 012°36'0 0.0
2019-Nov-18 11:00N 55°42' E 012°36'0 0.0
2019-Nov-18 09:30N 55°42' E 012°36'9512.6
2019-Nov-18 02:00N 57°14' E 011°52'1615.7
2019-Nov-18 01:00N 57°27' E 011°38'2416.0
2019-Nov-17 23:30N 57°50' E 011°22'816.1
2019-Nov-17 23:00N 57°57' E 011°17'1615.5
2019-Nov-17 22:00N 58°12' E 011°06'3215.9
2019-Nov-17 20:00N 58°42' E 010°46'4317.3
2019-Nov-17 17:30N 59°25' E 010°33'816.8
2019-Nov-17 17:00N 59°33' E 010°37'4 0.4
2019-Nov-17 07:30N 59°37' E 010°38'4314.5
2019-Nov-17 04:30N 58°54' E 010°35'714.3
2019-Nov-17 04:00N 58°46' E 010°35'814.9
2019-Nov-17 03:30N 58°39' E 010°36'3015.0
2019-Nov-17 01:30N 58°10' E 010°51'6415.9
2019-Nov-16 21:30N 57°11' E 011°38'6516.3
2019-Nov-16 17:30N 56°12' E 012°26'918.7
2019-Nov-16 17:00N 56°05' E 012°37'1616.3
2019-Nov-16 16:00N 55°49' E 012°44'714.4
2019-Nov-16 15:30N 55°43' E 012°37'11 1.4
2019-Nov-16 07:30N 55°54' E 012°39'1413.6
2019-Nov-16 06:30N 56°07' E 012°32'12715.8
2019-Nov-15 22:30N 58°06' E 011°10'4016.1
2019-Nov-15 20:00N 58°44' E 010°45'1716.8
2019-Nov-15 19:00N 59°00' E 010°41'1717.0
2019-Nov-15 18:00N 59°17' E 010°36'3714.9
2019-Nov-15 15:30N 59°54' E 010°44'0 0.1
2019-Nov-15 13:28N 59°54' E 010°45'0 0.0
2019-Nov-15 11:58N 59°54' E 010°45'0 0.0
2019-Nov-15 09:28N 59°54' E 010°45'0 0.1
2019-Nov-15 08:30N 59°54' E 010°45'2013.1
2019-Nov-15 07:00N 59°35' E 010°38'3815.4
2019-Nov-15 04:30N 58°56' E 010°37'1716.6
2019-Nov-15 03:30N 58°39' E 010°37'6017.1
2019-Nov-15 00:00N 57°43' E 011°12'2516.4
2019-Nov-14 22:30N 57°22' E 011°37'7715.7
2019-Nov-14 17:36N 56°10' E 012°29'216.2
2019-Nov-14 17:30N 56°09' E 012°30'27 3.9
2019-Nov-14 10:29N 55°42' E 012°36'27 6.8
2019-Nov-14 06:30N 56°09' E 012°29'7717.2
2019-Nov-14 02:00N 57°22' E 011°42'4116.3
2019-Nov-13 23:30N 57°52' E 010°51'3216.1
2019-Nov-13 21:30N 58°23' E 010°36'1716.9
2019-Nov-13 20:30N 58°40' E 010°34'3316.4
2019-Nov-13 18:30N 59°13' E 010°37'816.3
2019-Nov-13 18:00N 59°21' E 010°35'3014.9
2019-Nov-13 16:00N 59°51' E 010°35'6 3.9
2019-Nov-13 14:29N 59°54' E 010°45'0 0.0
2019-Nov-13 13:59N 59°54' E 010°45'0 0.0
2019-Nov-13 12:29N 59°54' E 010°45'0 0.0
2019-Nov-13 11:29N 59°54' E 010°45'0 0.0
2019-Nov-13 09:59N 59°54' E 010°45'0 0.0
2019-Nov-13 09:29N 59°54' E 010°45'0 0.2
2019-Nov-13 08:30N 59°54' E 010°45'3313.1
2019-Nov-13 06:01N 59°22' E 010°35'4916.4
2019-Nov-13 03:00N 58°32' E 010°38'816.5
2019-Nov-13 02:30N 58°24' E 010°41'816.4
2019-Nov-13 02:00N 58°17' E 010°47'3216.2
2019-Nov-13 00:00N 57°47' E 011°12'816.6
2019-Nov-12 23:30N 57°40' E 011°20'2516.9
2019-Nov-12 22:01N 57°16' E 011°36'6915.9
2019-Nov-12 17:41N 56°13' E 012°24'3114.3
2019-Nov-12 15:30N 55°42' E 012°37'1 1.1
2019-Nov-12 15:00N 55°42' E 012°36'0 0.0
2019-Nov-12 14:00N 55°42' E 012°36'0 0.0
2019-Nov-12 13:30N 55°42' E 012°36'0 0.0
2019-Nov-12 13:00N 55°42' E 012°36'0 0.0
2019-Nov-12 12:00N 55°42' E 012°36'0 0.0
2019-Nov-12 11:30N 55°42' E 012°36'0 0.0
2019-Nov-12 10:00N 55°42' E 012°36'0 0.0
2019-Nov-12 09:00N 55°42' E 012°36'11 7.7
2019-Nov-12 07:31N 55°53' E 012°40'2013.4
2019-Nov-12 06:00N 56°11' E 012°24'7215.9
2019-Nov-12 01:30N 57°20' E 011°46'2416.0
2019-Nov-12 00:00N 57°41' E 011°26'4116.3
2019-Nov-11 21:30N 58°20' E 011°01'815.9
2019-Nov-11 21:00N 58°27' E 010°55'4217.0
2019-Nov-11 18:30N 59°09' E 010°38'1918.8
2019-Nov-11 17:30N 59°27' E 010°33'918.2
2019-Nov-11 17:00N 59°36' E 010°38'714.6
2019-Nov-11 16:30N 59°43' E 010°34'12 8.0
2019-Nov-11 15:00N 59°54' E 010°45'0 0.0
2019-Nov-11 13:00N 59°54' E 010°45'0 0.0
2019-Nov-11 12:00N 59°54' E 010°45'0 0.0
2019-Nov-11 10:30N 59°54' E 010°45'0 0.0
2019-Nov-11 09:00N 59°54' E 010°45'3511.6
2019-Nov-11 06:01N 59°20' E 010°36'815.7
2019-Nov-11 05:31N 59°12' E 010°39'3115.6
2019-Nov-11 03:30N 58°41' E 010°37'1716.4
2019-Nov-11 02:30N 58°25' E 010°42'817.0
2019-Nov-11 02:01N 58°17' E 010°48'1616.5
2019-Nov-11 01:01N 58°02' E 010°58'816.3
2019-Nov-11 00:31N 57°54' E 011°04'1616.4
2019-Nov-10 23:31N 57°39' E 011°17'1616.4
2019-Nov-10 22:31N 57°24' E 011°29'2516.7
2019-Nov-10 21:00N 57°00' E 011°46'7915.9
2019-Nov-10 16:01N 55°48' E 012°43'7 1.0
2019-Nov-10 09:01N 55°42' E 012°36'  

Dump ship's entire track history